Time;durP1;ratioP1;P1;durP2;ratioP2;P2;SDS_P1;SDS_P2;PMS_P1;PMS_P2;Temp;Humidity;BMP_temperature;BMP_pressure;BME280_temperature;BME280_humidity;BME280_pressure;Samples;Min_cycle;Max_cycle;Signal;HPM_P1;HPM_P2
2023/07/03 00:02:06;;;;;;;0.40;0.40;;;15.60;99.90;;;;;;5032929;28;20197;-68
2023/07/03 00:04:35;;;;;;;0.30;0.30;;;15.60;99.90;;;;;;5032158;28;20230;-69
2023/07/03 00:07:02;;;;;;;0.30;0.30;;;15.70;99.90;;;;;;5032712;28;20197;-68
2023/07/03 00:09:28;;;;;;;0.32;0.32;;;15.80;99.90;;;;;;5032431;28;20273;-68
2023/07/03 00:11:54;;;;;;;0.30;0.30;;;15.80;99.90;;;;;;5032495;28;20210;-68
2023/07/03 00:14:20;;;;;;;0.30;0.30;;;15.70;99.90;;;;;;5032276;28;20213;-69
2023/07/03 00:16:46;;;;;;;0.20;0.20;;;15.70;99.90;;;;;;5014805;28;20666;-69
2023/07/03 00:19:13;;;;;;;0.20;0.20;;;15.90;99.90;;;;;;5019604;28;20199;-68
2023/07/03 00:21:43;;;;;;;0.30;0.30;;;15.90;99.90;;;;;;5013102;28;20218;-69
2023/07/03 00:24:13;;;;;;;0.45;0.45;;;16.00;99.90;;;;;;5032157;28;20191;-68
2023/07/03 00:26:39;;;;;;;0.22;0.22;;;15.90;99.90;;;;;;5031998;28;20201;-68
2023/07/03 00:29:05;;;;;;;0.40;0.40;;;15.60;99.90;;;;;;5031526;28;20724;-68
2023/07/03 00:31:31;;;;;;;0.25;0.25;;;15.60;99.90;;;;;;5031956;28;20205;-68
2023/07/03 00:33:58;;;;;;;0.30;0.30;;;15.50;99.90;;;;;;5032237;28;20269;-68
2023/07/03 00:36:24;;;;;;;0.30;0.30;;;15.50;99.90;;;;;;5031557;28;20187;-69
2023/07/03 00:38:50;;;;;;;0.30;0.30;;;15.40;99.90;;;;;;5032184;28;20201;-68
2023/07/03 00:41:17;;;;;;;0.40;0.40;;;15.30;99.90;;;;;;5028449;28;20285;-68
2023/07/03 00:43:43;;;;;;;0.32;0.32;;;15.20;99.90;;;;;;5012092;28;20222;-67
2023/07/03 00:46:10;;;;;;;0.30;0.30;;;15.20;99.90;;;;;;5012226;28;20215;-67
2023/07/03 00:48:40;;;;;;;0.30;0.30;;;15.20;99.90;;;;;;5012042;28;20199;-68
2023/07/03 00:51:08;;;;;;;0.30;0.30;;;15.20;99.90;;;;;;5012033;28;20199;-68
2023/07/03 00:53:34;;;;;;;0.40;0.40;;;15.20;99.90;;;;;;5011964;28;20241;-68
2023/07/03 00:56:01;;;;;;;0.30;0.30;;;15.20;99.90;;;;;;5018932;28;20194;-68
2023/07/03 00:58:27;;;;;;;0.30;0.30;;;15.20;99.90;;;;;;5031358;28;20277;-68
2023/07/03 01:01:17;;;;;;;0.30;0.30;;;15.10;99.90;;;;;;5031916;28;20277;-72
2023/07/03 01:03:59;;;;;;;0.50;0.50;;;14.90;99.90;;;;;;5048058;22;20229;-66
2023/07/03 01:06:32;;;;;;;0.30;0.30;;;14.80;99.90;;;;;;5031466;28;20225;-67
2023/07/03 01:09:01;;;;;;;0.57;0.57;;;14.90;99.90;;;;;;5013792;28;20285;-67
2023/07/03 01:11:28;;;;;;;0.20;0.20;;;15.00;99.90;;;;;;5013729;28;20315;-67
2023/07/03 01:13:58;;;;;;;0.30;0.30;;;15.10;99.90;;;;;;5013906;28;20222;-67
2023/07/03 01:16:24;;;;;;;0.30;0.30;;;15.20;99.90;;;;;;5031336;28;20722;-67
2023/07/03 01:18:53;;;;;;;0.30;0.30;;;15.30;99.90;;;;;;5031226;28;20280;-67
2023/07/03 01:21:36;;;;;;;0.40;0.40;;;15.30;99.90;;;;;;5031190;28;20210;-67
2023/07/03 01:24:11;;;;;;;1.20;1.10;;;15.20;99.90;;;;;;5031348;28;20197;-67
2023/07/03 01:26:39;;;;;;;0.30;0.30;;;15.30;99.90;;;;;;5030811;28;20737;-66
2023/07/03 01:29:06;;;;;;;0.30;0.30;;;15.40;99.90;;;;;;5013501;28;20206;-66
2023/07/03 01:31:35;;;;;;;0.20;0.20;;;15.50;99.90;;;;;;5031104;28;20746;-67
2023/07/03 01:34:02;;;;;;;0.60;0.60;;;15.50;99.90;;;;;;5029769;28;20284;-67
2023/07/03 01:36:33;;;;;;;0.30;0.30;;;15.60;99.90;;;;;;5031977;28;20190;-67
2023/07/03 01:39:01;;;;;;;0.30;0.30;;;15.50;99.90;;;;;;5050978;28;20193;-67
2023/07/03 01:41:28;;;;;;;0.52;0.43;;;15.40;99.90;;;;;;5049712;28;20205;-67
2023/07/03 01:43:54;;;;;;;0.30;0.30;;;15.30;99.90;;;;;;5050953;28;20186;-67
2023/07/03 01:46:23;;;;;;;0.28;0.28;;;15.20;99.90;;;;;;5050633;28;20224;-66
2023/07/03 01:48:49;;;;;;;0.35;0.35;;;15.10;99.90;;;;;;5049441;28;20583;-67
2023/07/03 01:51:25;;;;;;;0.30;0.30;;;15.20;99.90;;;;;;5050737;28;20232;-66
2023/07/03 01:54:05;;;;;;;0.55;0.55;;;15.30;99.90;;;;;;5011622;28;20186;-66
2023/07/03 01:56:35;;;;;;;0.30;0.30;;;15.30;99.90;;;;;;5011329;28;20285;-66
2023/07/03 01:59:17;;;;;;;0.40;0.40;;;15.20;99.90;;;;;;5011560;28;20198;-67
2023/07/03 02:01:56;;;;;;;0.20;0.20;;;15.10;99.90;;;;;;5024431;28;20210;-66
2023/07/03 02:04:37;;;;;;;0.30;0.30;;;15.10;99.90;;;;;;5031004;28;20727;-66
2023/07/03 02:07:04;;;;;;;0.30;0.30;;;15.20;99.90;;;;;;5013634;28;20237;-66
2023/07/03 02:09:31;;;;;;;0.25;0.25;;;15.30;99.90;;;;;;5030894;28;20213;-66
2023/07/03 02:11:57;;;;;;;0.40;0.40;;;15.40;99.90;;;;;;5031052;28;20210;-66
2023/07/03 02:14:24;;;;;;;0.20;0.20;;;15.40;99.90;;;;;;5030858;28;20195;-66
2023/07/03 02:16:53;;;;;;;0.43;0.43;;;15.50;99.90;;;;;;5031176;28;20668;-66
2023/07/03 02:19:28;;;;;;;0.30;0.30;;;15.50;99.90;;;;;;5030706;28;20203;-67
2023/07/03 02:21:59;;;;;;;0.63;0.60;;;15.40;99.90;;;;;;5013313;28;20212;-67
2023/07/03 02:24:26;;;;;;;0.30;0.30;;;15.30;99.90;;;;;;5030770;28;20229;-67
2023/07/03 02:26:52;;;;;;;0.20;0.20;;;15.10;99.90;;;;;;5031389;28;20213;-67
2023/07/03 02:29:18;;;;;;;0.30;0.30;;;15.00;99.90;;;;;;5030964;28;20190;-67
2023/07/03 02:31:47;;;;;;;0.95;0.95;;;14.90;99.90;;;;;;5031014;28;20205;-67
2023/07/03 02:34:13;;;;;;;0.20;0.20;;;14.80;99.90;;;;;;5030701;28;20214;-67
2023/07/03 02:36:40;;;;;;;0.30;0.30;;;14.80;99.90;;;;;;5033668;28;20204;-67
2023/07/03 02:39:07;;;;;;;0.32;0.32;;;14.40;99.90;;;;;;5050948;28;20213;-67
2023/07/03 02:41:33;;;;;;;0.30;0.30;;;14.50;99.90;;;;;;5051319;28;20248;-67
2023/07/03 02:43:59;;;;;;;0.28;0.28;;;14.50;99.90;;;;;;5050823;28;20285;-67
2023/07/03 02:46:29;;;;;;;0.30;0.30;;;14.60;99.90;;;;;;5050042;28;20621;-67
2023/07/03 02:48:54;;;;;;;0.40;0.40;;;14.70;99.90;;;;;;5040165;28;20220;-67
2023/07/03 02:51:20;;;;;;;0.30;0.30;;;14.70;99.90;;;;;;5030686;28;20675;-67
2023/07/03 02:53:49;;;;;;;0.35;0.35;;;14.80;99.90;;;;;;5034120;28;20229;-67
2023/07/03 02:56:15;;;;;;;0.40;0.40;;;14.70;99.90;;;;;;5034726;28;20195;-67
2023/07/03 02:58:41;;;;;;;0.30;0.30;;;14.50;99.90;;;;;;5016876;28;20198;-67
2023/07/03 03:01:07;;;;;;;0.70;0.70;;;14.50;99.90;;;;;;5033868;28;20194;-67
2023/07/03 03:03:33;;;;;;;0.30;0.30;;;14.60;99.90;;;;;;5033743;28;20590;-67
2023/07/03 03:06:03;;;;;;;0.47;0.47;;;14.70;99.90;;;;;;5034876;28;20277;-67
2023/07/03 03:08:28;;;;;;;0.40;0.40;;;14.50;99.90;;;;;;5034466;28;20198;-68
2023/07/03 03:10:54;;;;;;;0.35;0.35;;;14.50;99.90;;;;;;5034303;28;20201;-67
2023/07/03 03:13:20;;;;;;;0.35;0.35;;;14.70;99.90;;;;;;5034619;28;20198;-67
2023/07/03 03:15:49;;;;;;;0.90;0.73;;;14.90;99.90;;;;;;5034101;28;20202;-67
2023/07/03 03:18:15;;;;;;;0.20;0.20;;;15.00;99.90;;;;;;5034106;28;20661;-67
2023/07/03 03:20:41;;;;;;;0.43;0.43;;;15.10;99.90;;;;;;5034191;28;20190;-67
2023/07/03 03:23:06;;;;;;;0.30;0.30;;;15.30;99.90;;;;;;5034233;28;20669;-67
2023/07/03 03:25:33;;;;;;;0.70;0.70;;;15.40;99.90;;;;;;5033371;28;20281;-67
2023/07/03 03:27:58;;;;;;;1.88;0.77;;;15.60;99.90;;;;;;5033940;28;20206;-67
2023/07/03 03:30:24;;;;;;;0.30;0.30;;;15.70;99.90;;;;;;5033395;28;20738;-67
2023/07/03 03:32:50;;;;;;;9.35;1.23;;;15.90;99.90;;;;;;5033501;28;20216;-67
2023/07/03 03:35:15;;;;;;;0.40;0.40;;;16.00;99.90;;;;;;5033645;28;20190;-67
2023/07/03 03:37:41;;;;;;;0.28;0.28;;;16.10;99.90;;;;;;5045592;28;20198;-66
2023/07/03 03:40:09;;;;;;;0.40;0.40;;;16.10;99.90;;;;;;5054625;28;20197;-67
2023/07/03 03:42:35;;;;;;;3.50;0.70;;;16.20;99.90;;;;;;5053944;28;20198;-67
2023/07/03 03:45:02;;;;;;;0.30;0.30;;;16.20;99.90;;;;;;5044980;28;20709;-66
2023/07/03 03:47:28;;;;;;;0.20;0.20;;;16.30;99.90;;;;;;5034209;28;20189;-66
2023/07/03 03:49:54;;;;;;;0.40;0.40;;;16.30;99.90;;;;;;5033949;28;20194;-67
2023/07/03 03:52:19;;;;;;;6.03;0.98;;;16.30;99.90;;;;;;5016018;28;20241;-67
2023/07/03 03:54:48;;;;;;;0.25;0.25;;;16.40;99.90;;;;;;5033859;28;20534;-67
2023/07/03 03:57:14;;;;;;;0.77;0.77;;;16.30;99.90;;;;;;5033593;28;20252;-67
2023/07/03 03:59:40;;;;;;;0.40;0.40;;;16.10;99.90;;;;;;5033466;28;20277;-67
2023/07/03 04:02:06;;;;;;;0.30;0.30;;;16.10;99.90;;;;;;5032950;28;20257;-67
2023/07/03 04:04:32;;;;;;;0.32;0.32;;;16.00;99.90;;;;;;5032258;28;20191;-66
2023/07/03 04:06:58;;;;;;;0.32;0.32;;;15.90;99.90;;;;;;5033426;28;20661;-67
2023/07/03 04:09:24;;;;;;;0.30;0.30;;;15.70;99.90;;;;;;5015166;28;20209;-67
2023/07/03 04:11:49;;;;;;;0.40;0.40;;;15.60;99.90;;;;;;5015524;28;20220;-67
2023/07/03 04:14:16;;;;;;;0.30;0.30;;;15.40;99.90;;;;;;5033383;28;20277;-68
2023/07/03 04:16:43;;;;;;;0.30;0.30;;;15.20;99.90;;;;;;5033206;28;20194;-67
2023/07/03 04:19:12;;;;;;;0.55;0.55;;;15.00;99.90;;;;;;5033631;28;20206;-68
2023/07/03 04:21:39;;;;;;;0.40;0.40;;;14.90;99.90;;;;;;5015179;28;20211;-68
2023/07/03 04:24:05;;;;;;;0.25;0.25;;;14.80;99.90;;;;;;5033341;28;20220;-67
2023/07/03 04:26:31;;;;;;;0.30;0.30;;;14.90;99.90;;;;;;5032827;28;20209;-67
2023/07/03 04:28:58;;;;;;;2.45;1.10;;;15.10;99.90;;;;;;5033282;28;20208;-67
2023/07/03 04:31:24;;;;;;;0.30;0.30;;;15.30;99.90;;;;;;5032596;28;20206;-68
2023/07/03 04:33:53;;;;;;;0.30;0.30;;;15.70;99.90;;;;;;5032823;28;20199;-67
2023/07/03 04:36:22;;;;;;;0.20;0.20;;;16.00;99.90;;;;;;5032863;28;20194;-67
2023/07/03 04:38:48;;;;;;;0.43;0.43;;;16.20;99.90;;;;;;5052892;28;20251;-68
2023/07/03 04:41:15;;;;;;;0.40;0.40;;;16.30;99.90;;;;;;5042904;28;20202;-67
2023/07/03 04:43:44;;;;;;;0.30;0.30;;;16.40;99.90;;;;;;5032793;28;20724;-67
2023/07/03 04:46:11;;;;;;;0.30;0.30;;;16.20;99.90;;;;;;5015423;28;20222;-68
2023/07/03 04:48:36;;;;;;;0.73;0.73;;;16.10;99.90;;;;;;5032397;28;20649;-68
2023/07/03 04:51:03;;;;;;;0.40;0.40;;;16.00;99.90;;;;;;5015002;28;20193;-67
2023/07/03 04:53:31;;;;;;;0.20;0.20;;;16.00;99.90;;;;;;5014628;28;20691;-67
2023/07/03 04:55:57;;;;;;;0.40;0.40;;;16.10;99.90;;;;;;5032765;28;20543;-68
2023/07/03 04:58:26;;;;;;;0.20;0.20;;;16.10;99.90;;;;;;5032357;28;20183;-68
2023/07/03 05:00:52;;;;;;;0.30;0.30;;;16.10;99.90;;;;;;5032585;28;20201;-68
2023/07/03 05:03:18;;;;;;;0.30;0.30;;;16.00;99.90;;;;;;5032017;28;20214;-68
2023/07/03 05:05:44;;;;;;;0.40;0.40;;;16.00;99.90;;;;;;5031931;28;20209;-68
2023/07/03 05:08:10;;;;;;;0.30;0.30;;;16.10;99.90;;;;;;5031846;28;20668;-68
2023/07/03 05:10:38;;;;;;;1.10;0.75;;;16.20;99.90;;;;;;5031834;28;20186;-68
2023/07/03 05:13:04;;;;;;;0.30;0.30;;;16.10;99.90;;;;;;5032252;28;20238;-67
2023/07/03 05:15:31;;;;;;;0.50;0.50;;;16.00;99.90;;;;;;5031707;28;20214;-68
2023/07/03 05:17:57;;;;;;;0.20;0.20;;;15.90;99.90;;;;;;5014292;28;20667;-68
2023/07/03 05:20:25;;;;;;;0.40;0.40;;;16.10;99.90;;;;;;5031673;28;20871;-68
2023/07/03 05:22:52;;;;;;;0.20;0.20;;;16.30;99.90;;;;;;5032412;28;20186;-68
2023/07/03 05:25:19;;;;;;;0.20;0.20;;;16.60;99.90;;;;;;5031982;28;20226;-68
2023/07/03 05:27:46;;;;;;;6.28;1.33;;;16.70;99.90;;;;;;5031823;28;20779;-68
2023/07/03 05:30:12;;;;;;;0.30;0.30;;;16.90;99.90;;;;;;5031465;28;20217;-67
2023/07/03 05:32:38;;;;;;;0.30;0.30;;;17.10;99.90;;;;;;5031348;28;20250;-67
2023/07/03 05:35:05;;;;;;;0.30;0.30;;;17.40;99.90;;;;;;5031956;28;20352;-67
2023/07/03 05:37:31;;;;;;;2.85;1.58;;;17.50;99.90;;;;;;5031784;28;20297;-68
2023/07/03 05:39:57;;;;;;;0.20;0.20;;;17.60;99.90;;;;;;5031460;28;20213;-67
2023/07/03 05:42:23;;;;;;;0.20;0.20;;;17.80;99.90;;;;;;5013018;28;20724;-67
2023/07/03 05:44:49;;;;;;;0.22;0.22;;;17.80;99.90;;;;;;5031230;28;20738;-68
2023/07/03 05:47:16;;;;;;;0.28;0.28;;;18.00;99.90;;;;;;5013510;28;20288;-67
2023/07/03 05:49:42;;;;;;;0.30;0.30;;;18.00;99.90;;;;;;5031734;28;20286;-66
2023/07/03 05:52:10;;;;;;;0.20;0.20;;;18.30;99.90;;;;;;5032456;28;20802;-68
2023/07/03 05:54:36;;;;;;;0.50;0.47;;;18.70;99.90;;;;;;5031144;28;20822;-68
2023/07/03 05:57:08;;;;;;;0.20;0.20;;;18.90;99.90;;;;;;5031364;28;20657;-68
2023/07/03 05:59:34;;;;;;;0.95;0.68;;;19.30;99.90;;;;;;5030957;28;20274;-68
2023/07/03 06:02:06;;;;;;;0.30;0.30;;;19.30;99.90;;;;;;5030822;28;20547;-68
2023/07/03 06:04:33;;;;;;;0.20;0.20;;;18.90;99.90;;;;;;5031473;28;20277;-68
2023/07/03 06:06:59;;;;;;;0.95;0.68;;;18.60;99.90;;;;;;5031410;28;20198;-68
2023/07/03 06:09:27;;;;;;;0.47;0.47;;;18.40;99.90;;;;;;5031102;28;20198;-68
2023/07/03 06:11:53;;;;;;;0.40;0.40;;;18.10;99.90;;;;;;5031472;28;20732;-68
2023/07/03 06:14:19;;;;;;;0.30;0.30;;;18.10;99.90;;;;;;5028073;28;20253;-68
2023/07/03 06:16:48;;;;;;;0.40;0.40;;;18.00;99.90;;;;;;5011652;28;20203;-67
2023/07/03 06:19:18;;;;;;;0.60;0.60;;;18.00;99.90;;;;;;5011489;28;20213;-68
2023/07/03 06:21:44;;;;;;;3.22;0.73;;;18.10;99.90;;;;;;5011633;28;20210;-68
2023/07/03 06:24:11;;;;;;;0.20;0.20;;;18.40;99.90;;;;;;5011509;28;20269;-68
2023/07/03 06:26:39;;;;;;;0.38;0.38;;;18.60;99.90;;;;;;5010712;28;20195;-68
2023/07/03 06:29:09;;;;;;;0.30;0.30;;;18.60;99.90;;;;;;5011422;28;20681;-68
2023/07/03 06:31:36;;;;;;;0.47;0.47;;;18.40;99.90;;;;;;5009706;28;20297;-67
2023/07/03 06:34:03;;;;;;;0.40;0.40;;;18.00;99.90;;;;;;5023219;28;20198;-68
2023/07/03 06:36:29;;;;;;;0.20;0.20;;;17.60;99.90;;;;;;5014890;28;20205;-67
2023/07/03 06:38:56;;;;;;;0.30;0.30;;;17.40;99.90;;;;;;5050926;28;20190;-67
2023/07/03 06:41:23;;;;;;;0.45;0.45;;;17.10;99.90;;;;;;5050695;28;20301;-67
2023/07/03 06:43:52;;;;;;;0.35;0.35;;;17.00;99.90;;;;;;5050316;28;20186;-67
2023/07/03 06:46:19;;;;;;;0.85;0.65;;;17.10;99.90;;;;;;5050339;28;20205;-68
2023/07/03 06:48:45;;;;;;;0.30;0.30;;;17.20;99.90;;;;;;5050882;28;20280;-67
2023/07/03 06:51:12;;;;;;;0.50;0.50;;;17.50;99.90;;;;;;5050855;28;20201;-67
2023/07/03 06:53:41;;;;;;;0.30;0.30;;;17.80;99.90;;;;;;5050378;28;20194;-67
2023/07/03 06:56:08;;;;;;;0.57;0.40;;;17.80;99.90;;;;;;5043669;28;20201;-67
2023/07/03 06:58:35;;;;;;;0.20;0.20;;;17.80;99.90;;;;;;5030019;28;20221;-67
2023/07/03 07:01:09;;;;;;;0.20;0.20;;;17.70;99.90;;;;;;5030302;28;20673;-67
2023/07/03 07:03:39;;;;;;;0.60;0.50;;;17.50;99.90;;;;;;5029700;28;20221;-67
2023/07/03 07:06:25;;;;;;;0.38;0.38;;;17.40;99.90;;;;;;5030443;28;20202;-66
2023/07/03 07:08:51;;;;;;;0.20;0.20;;;17.30;99.90;;;;;;5030183;28;20182;-67
2023/07/03 07:11:20;;;;;;;0.30;0.30;;;17.10;99.90;;;;;;5029927;28;20202;-67
2023/07/03 07:13:47;;;;;;;0.20;0.20;;;17.00;99.90;;;;;;5030056;28;20603;-68
2023/07/03 07:16:16;;;;;;;0.30;0.30;;;16.80;99.90;;;;;;5029183;28;20194;-68
2023/07/03 07:18:42;;;;;;;0.20;0.20;;;16.50;99.90;;;;;;5030014;28;20216;-67
2023/07/03 07:21:08;;;;;;;0.28;0.28;;;16.40;99.90;;;;;;5029907;28;20213;-67
2023/07/03 07:23:34;;;;;;;0.20;0.20;;;16.40;99.90;;;;;;5029734;28;20198;-68
2023/07/03 07:26:00;;;;;;;0.20;0.20;;;16.60;99.90;;;;;;5030199;28;20194;-67
2023/07/03 07:28:26;;;;;;;0.40;0.40;;;16.80;99.90;;;;;;5029524;28;20190;-68
2023/07/03 07:30:52;;;;;;;0.43;0.43;;;17.00;99.90;;;;;;5030531;28;20209;-69
2023/07/03 07:33:17;;;;;;;0.40;0.40;;;17.20;99.90;;;;;;5029825;28;20214;-68
2023/07/03 07:35:51;;;;;;;0.22;0.22;;;17.10;99.90;;;;;;5012227;28;20206;-68
2023/07/03 07:38:18;;;;;;;0.40;0.40;;;17.10;99.90;;;;;;5046406;28;20382;-68
2023/07/03 07:40:44;;;;;;;0.40;0.40;;;17.20;99.90;;;;;;5052689;28;20268;-67
2023/07/03 07:43:10;;;;;;;0.20;0.20;;;17.20;99.90;;;;;;5035681;28;20244;-68
2023/07/03 07:45:38;;;;;;;0.30;0.30;;;17.30;99.90;;;;;;5035401;28;20727;-68
2023/07/03 07:48:05;;;;;;;0.30;0.30;;;17.50;99.90;;;;;;5048522;28;20213;-68
2023/07/03 07:50:34;;;;;;;0.30;0.30;;;17.60;99.90;;;;;;5032912;28;20256;-67
2023/07/03 07:53:00;;;;;;;0.32;0.32;;;17.70;99.90;;;;;;5033392;28;20793;-66
2023/07/03 07:55:26;;;;;;;0.32;0.32;;;17.90;99.90;;;;;;5033218;28;20226;-67
2023/07/03 07:57:52;;;;;;;0.20;0.20;;;17.50;99.90;;;;;;5033176;28;20201;-67
2023/07/03 08:00:19;;;;;;;0.20;0.20;;;17.50;99.90;;;;;;5033481;28;20284;-67
2023/07/03 08:02:45;;;;;;;0.25;0.25;;;17.80;99.90;;;;;;5033142;28;20646;-67
2023/07/03 08:05:11;;;;;;;0.20;0.20;;;18.20;99.90;;;;;;5033314;28;20194;-67
2023/07/03 08:07:36;;;;;;;0.20;0.20;;;18.60;99.90;;;;;;5033127;28;20256;-66
2023/07/03 08:10:02;;;;;;;0.40;0.40;;;19.10;99.90;;;;;;5032937;28;20517;-66
2023/07/03 08:12:28;;;;;;;0.20;0.20;;;19.10;99.90;;;;;;5032445;28;20210;-66
2023/07/03 08:14:54;;;;;;;0.20;0.20;;;19.00;99.90;;;;;;5032744;28;20197;-67
2023/07/03 08:17:20;;;;;;;0.30;0.30;;;18.50;99.90;;;;;;5032603;28;20226;-68
2023/07/03 08:19:45;;;;;;;0.20;0.20;;;18.10;99.90;;;;;;5032814;28;20548;-67
2023/07/03 08:22:11;;;;;;;0.40;0.40;;;18.30;99.90;;;;;;5031106;28;20202;-68
2023/07/03 08:24:37;;;;;;;0.20;0.20;;;18.40;99.90;;;;;;5032605;28;20202;-68
2023/07/03 08:27:03;;;;;;;0.45;0.45;;;18.60;99.90;;;;;;5032664;28;20677;-68
2023/07/03 08:29:29;;;;;;;0.40;0.40;;;18.60;99.90;;;;;;5032179;28;20202;-68
2023/07/03 08:31:54;;;;;;;0.22;0.22;;;18.80;99.90;;;;;;5032659;28;20301;-68
2023/07/03 08:34:20;;;;;;;0.20;0.20;;;18.90;99.90;;;;;;5032250;28;20193;-68
2023/07/03 08:36:46;;;;;;;0.30;0.30;;;18.50;99.90;;;;;;5036261;28;20698;-68
2023/07/03 08:39:14;;;;;;;0.30;0.30;;;18.60;99.90;;;;;;5052309;28;20190;-68
2023/07/03 08:42:06;;;;;;;4.57;0.65;;;18.40;99.90;;;;;;5052096;28;20201;-68
2023/07/03 08:44:31;;;;;;;1.95;0.52;;;18.50;99.90;;;;;;5050746;28;20269;-68
2023/07/03 08:47:00;;;;;;;0.20;0.20;;;18.70;99.90;;;;;;5052137;28;20280;-68
2023/07/03 08:49:27;;;;;;;0.20;0.20;;;18.80;99.90;;;;;;5038477;28;20194;-68
2023/07/03 08:51:58;;;;;;;0.30;0.30;;;18.80;99.90;;;;;;5031615;28;20336;-68
2023/07/03 08:54:30;;;;;;;0.38;0.38;;;19.10;99.90;;;;;;5031837;28;20559;-68
2023/07/03 08:56:57;;;;;;;0.20;0.20;;;19.10;99.90;;;;;;5014125;28;20213;-67
2023/07/03 08:59:23;;;;;;;0.30;0.30;;;19.10;99.90;;;;;;5031692;28;20194;-68
2023/07/03 09:01:52;;;;;;;0.40;0.40;;;19.10;99.90;;;;;;5031537;28;20213;-68
2023/07/03 09:04:54;;;;;;;0.32;0.32;;;19.30;99.90;;;;;;5031364;28;20214;-69
2023/07/03 09:07:38;;;;;;;0.20;0.20;;;19.60;99.90;;;;;;5031148;28;20201;-68
2023/07/03 09:10:19;;;;;;;0.25;0.25;;;19.70;99.90;;;;;;5031805;28;20190;-68
2023/07/03 09:13:13;;;;;;;1.15;0.60;;;19.30;99.90;;;;;;5013770;28;20619;-68
2023/07/03 09:15:58;;;;;;;0.20;0.20;;;19.30;99.90;;;;;;5017975;28;21200;-69
2023/07/03 09:18:28;;;;;;;0.47;0.47;;;19.50;99.90;;;;;;5031276;28;20239;-69
2023/07/03 09:20:57;;;;;;;0.30;0.30;;;19.60;99.90;;;;;;5031365;28;20191;-68
2023/07/03 09:23:33;;;;;;;0.20;0.20;;;19.60;99.90;;;;;;5030986;28;20210;-68
2023/07/03 09:26:23;;;;;;;0.40;0.40;;;19.70;99.90;;;;;;5031515;28;20559;-68
2023/07/03 09:28:58;;;;;;;0.68;0.30;;;19.60;99.90;;;;;;5031459;28;20281;-69
2023/07/03 09:31:26;;;;;;;0.20;0.20;;;19.70;99.90;;;;;;5030968;28;20216;-68
2023/07/03 09:33:52;;;;;;;0.50;0.50;;;19.80;99.90;;;;;;5031350;28;20692;-68
2023/07/03 09:36:37;;;;;;;0.20;0.20;;;19.80;99.90;;;;;;5030958;28;20267;-68
2023/07/03 09:39:12;;;;;;;0.35;0.20;;;20.00;99.90;;;;;;5051103;28;20220;-68
2023/07/03 09:41:39;;;;;;;0.25;0.25;;;20.60;99.90;;;;;;5050838;28;20195;-68
2023/07/03 09:44:12;;;;;;;0.20;0.20;;;20.80;99.90;;;;;;5050799;28;20202;-67
2023/07/03 09:46:46;;;;;;;0.30;0.30;;;21.00;99.90;;;;;;5028474;28;20209;-68
2023/07/03 09:49:22;;;;;;;0.20;0.20;;;21.10;99.90;;;;;;5031076;28;20229;-68
2023/07/03 09:51:53;;;;;;;0.30;0.30;;;21.20;99.90;;;;;;5030878;28;20576;-67
2023/07/03 09:54:25;;;;;;;0.35;0.30;;;21.20;99.90;;;;;;5030767;28;20198;-67
2023/07/03 09:56:51;;;;;;;0.30;0.30;;;21.00;99.90;;;;;;5030745;28;20186;-67
2023/07/03 09:59:20;;;;;;;0.52;0.52;;;20.80;99.90;;;;;;5030832;28;20318;-67
2023/07/03 10:01:47;;;;;;;0.10;0.10;;;20.70;99.90;;;;;;5030047;28;20677;-67
2023/07/03 10:04:15;;;;;;;0.30;0.30;;;20.50;99.90;;;;;;5030521;28;20252;-67
2023/07/03 10:06:52;;;;;;;0.22;0.22;;;20.60;99.90;;;;;;5030668;28;20209;-67
2023/07/03 10:09:25;;;;;;;0.10;0.10;;;21.00;99.90;;;;;;5030815;28;20618;-67
2023/07/03 10:12:17;;;;;;;0.20;0.20;;;21.20;99.90;;;;;;5030664;28;20255;-67
2023/07/03 10:14:46;;;;;;;0.20;0.20;;;21.10;99.90;;;;;;5030452;28;20194;-67
2023/07/03 10:17:13;;;;;;;0.25;0.25;;;20.90;99.90;;;;;;5030718;28;20198;-67
2023/07/03 10:19:51;;;;;;;0.50;0.45;;;20.80;99.90;;;;;;5030169;28;20705;-67
2023/07/03 10:22:18;;;;;;;0.20;0.20;;;20.90;99.90;;;;;;5012699;28;20698;-67
2023/07/03 10:24:48;;;;;;;0.40;0.40;;;20.70;99.90;;;;;;5030544;28;20210;-67
2023/07/03 10:27:19;;;;;;;0.10;0.10;;;20.30;99.90;;;;;;5030427;28;20588;-67
2023/07/03 10:29:52;;;;;;;0.22;0.20;;;19.90;99.90;;;;;;5030732;28;20209;-67
2023/07/03 10:32:27;;;;;;;0.20;0.20;;;19.80;99.90;;;;;;5030254;28;20265;-67
2023/07/03 10:35:09;;;;;;;0.38;0.38;;;19.70;99.90;;;;;;5013888;28;20205;-64
2023/07/03 10:37:46;;;;;;;0.10;0.10;;;19.50;99.90;;;;;;5006377;28;20202;-64
2023/07/03 10:40:18;;;;;;;0.20;0.20;;;19.60;99.90;;;;;;5010681;28;20199;-64
2023/07/03 10:43:00;;;;;;;0.17;0.17;;;19.90;99.90;;;;;;5011967;28;20737;-64
2023/07/03 10:45:30;;;;;;;0.20;0.20;;;20.00;99.90;;;;;;5028864;28;20198;-64
2023/07/03 10:48:23;;;;;;;0.20;0.20;;;20.00;99.90;;;;;;5030407;28;20209;-63
2023/07/03 10:50:55;;;;;;;0.20;0.20;;;20.10;99.90;;;;;;5027264;28;20244;-63
2023/07/03 10:53:31;;;;;;;0.20;0.20;;;20.40;99.90;;;;;;5012793;28;20702;-63
2023/07/03 10:56:08;;;;;;;0.20;0.20;;;20.70;99.90;;;;;;5030209;28;20340;-64
2023/07/03 10:58:58;;;;;;;0.20;0.20;;;20.60;99.90;;;;;;5030048;28;20198;-64
2023/07/03 11:01:39;;;;;;;0.20;0.20;;;20.70;99.90;;;;;;5029856;28;20202;-63
2023/07/03 11:04:19;;;;;;;0.20;0.20;;;20.80;99.90;;;;;;5045087;28;20324;-63
2023/07/03 11:07:23;;;;;;;0.20;0.20;;;21.20;99.90;;;;;;5030243;28;20553;-64
2023/07/03 11:10:07;;;;;;;0.20;0.20;;;21.30;99.90;;;;;;5030143;28;20272;-64
2023/07/03 11:12:35;;;;;;;0.20;0.20;;;21.30;99.90;;;;;;5029731;28;20206;-63
2023/07/03 11:15:07;;;;;;;0.30;0.30;;;21.40;99.90;;;;;;5033511;28;20229;-64
2023/07/03 11:17:47;;;;;;;0.10;0.10;;;21.60;99.90;;;;;;5033773;28;20720;-63
2023/07/03 11:20:22;;;;;;;0.20;0.20;;;22.50;99.90;;;;;;5033774;28;20340;-64
2023/07/03 11:23:18;;;;;;;0.73;0.52;;;23.50;99.90;;;;;;5033705;28;20189;-64
2023/07/03 11:25:53;;;;;;;2.65;0.95;;;22.80;99.90;;;;;;5033747;28;20206;-64
2023/07/03 11:28:43;;;;;;;0.20;0.20;;;22.10;99.90;;;;;;5015674;28;20197;-65
2023/07/03 11:31:10;;;;;;;0.30;0.30;;;21.20;99.90;;;;;;5033574;28;20220;-64
2023/07/03 11:33:38;;;;;;;0.20;0.20;;;20.20;99.90;;;;;;5033078;28;20202;-63
2023/07/03 11:36:05;;;;;;;0.50;0.50;;;19.80;99.90;;;;;;5033642;28;20743;-63
2023/07/03 11:38:34;;;;;;;0.20;0.20;;;19.00;99.90;;;;;;5035694;28;20661;-63
2023/07/03 11:41:01;;;;;;;0.30;0.30;;;18.50;99.90;;;;;;5033695;28;20201;-63
2023/07/03 11:43:33;;;;;;;0.95;0.47;;;18.20;99.90;;;;;;5033443;28;20672;-63
2023/07/03 11:45:58;;;;;;;1.58;1.05;;;17.90;99.90;;;;;;5033545;28;20280;-62
2023/07/03 11:48:40;;;;;;;0.43;0.43;;;18.00;99.90;;;;;;5032991;28;20221;-63
2023/07/03 11:51:12;;;;;;;0.38;0.38;;;18.00;99.90;;;;;;5033407;28;20186;-63
2023/07/03 11:53:49;;;;;;;0.30;0.30;;;18.00;99.90;;;;;;5015583;28;20222;-63
2023/07/03 11:56:36;;;;;;;0.32;0.32;;;18.20;99.90;;;;;;5013462;28;20187;-63
2023/07/03 11:59:07;;;;;;;0.20;0.20;;;18.50;99.90;;;;;;5013505;28;20578;-64
2023/07/03 12:01:32;;;;;;;0.30;0.30;;;18.80;99.90;;;;;;5013154;28;20253;-63
2023/07/03 12:04:04;;;;;;;0.30;0.30;;;19.10;99.90;;;;;;5013103;28;20227;-63
2023/07/03 12:06:42;;;;;;;0.43;0.43;;;19.40;99.90;;;;;;5012967;28;20202;-63
2023/07/03 12:09:31;;;;;;;2.08;0.82;;;19.80;99.90;;;;;;5013253;28;20724;-63
2023/07/03 12:12:03;;;;;;;0.40;0.40;;;20.20;99.90;;;;;;5027852;28;20720;-63
2023/07/03 12:14:52;;;;;;;0.35;0.32;;;20.40;99.90;;;;;;5032449;28;20194;-63
2023/07/03 12:17:33;;;;;;;0.20;0.20;;;20.60;99.90;;;;;;5032596;28;20748;-64
2023/07/03 12:20:11;;;;;;;0.20;0.20;;;20.70;99.90;;;;;;5032594;28;20208;-63
2023/07/03 12:22:39;;;;;;;0.30;0.30;;;20.60;99.90;;;;;;5032279;28;20195;-63
2023/07/03 12:25:23;;;;;;;0.20;0.20;;;20.60;99.90;;;;;;5031603;28;20209;-63
2023/07/03 12:27:51;;;;;;;0.17;0.17;;;20.70;99.90;;;;;;5032661;28;20197;-64
2023/07/03 12:30:23;;;;;;;0.20;0.20;;;20.60;99.90;;;;;;5032305;28;20194;-63
2023/07/03 12:32:50;;;;;;;0.38;0.38;;;20.50;99.90;;;;;;5014731;28;20256;-63
2023/07/03 12:35:19;;;;;;;0.32;0.32;;;20.00;99.90;;;;;;5032017;28;20202;-63
2023/07/03 12:37:58;;;;;;;0.50;0.50;;;19.60;99.90;;;;;;5043986;28;20652;-63
2023/07/03 12:40:25;;;;;;;0.30;0.30;;;19.20;99.90;;;;;;5052111;28;20193;-63
2023/07/03 12:42:58;;;;;;;0.50;0.50;;;19.00;99.90;;;;;;5034229;28;20205;-63
2023/07/03 12:45:28;;;;;;;0.20;0.20;;;18.90;99.90;;;;;;5051996;28;20603;-63
2023/07/03 12:48:06;;;;;;;1.38;0.65;;;18.80;99.90;;;;;;5050706;28;20232;-63
2023/07/03 12:50:34;;;;;;;0.20;0.20;;;19.10;99.90;;;;;;5031961;28;20197;-63
2023/07/03 12:53:04;;;;;;;0.75;0.75;;;19.30;99.90;;;;;;5024724;28;20265;-63
2023/07/03 12:55:34;;;;;;;0.30;0.30;;;19.60;99.90;;;;;;5011934;28;20273;-63
2023/07/03 12:58:01;;;;;;;0.57;0.57;;;20.00;99.90;;;;;;5012234;28;20226;-63
2023/07/03 13:00:32;;;;;;;0.25;0.25;;;20.30;99.90;;;;;;5011977;28;20249;-62
2023/07/03 13:03:00;;;;;;;6.55;0.60;;;20.10;99.90;;;;;;5011727;28;20234;-62